Caipirinha — ZCYL2 — position and weather

sailwx.info

Track history (hours):
 
Tides and Currents Weather Stations Pressure Air Temp Water Temp Dewpoint Dewpoint Depression Visibility Wind Speed Wind Dir Waves Ship Positions

Caipirinha

Last reported at 2017-Nov-16 13:27 UTC. Time now 2017-Dec-11 22:53 UTC.
Position N 37°44' E 015°54'.
Warning: this ship's position is 25 days out of date.

Length 60 m; draft 3.5 m.

Type: Pleasure craft. MMSI: 319011100.

Date/timePositionNaut miles runAvg speedWind from/ knotsBaromVisibWave heightAir tempDewpointWater temp
2017-Nov-16 13:27N 37°44' E 015°54'1314.0
2017-Nov-16 12:30N 37°48' E 015°38'714.3
2017-Nov-16 12:00N 37°55' E 015°35'714.1
2017-Nov-16 11:30N 38°02' E 015°34'714.3
2017-Nov-16 11:00N 38°09' E 015°35'714.2
2017-Nov-16 10:29N 38°15' E 015°39'613.0
2017-Nov-16 10:00N 38°22' E 015°39'713.9
2017-Nov-16 09:30N 38°29' E 015°37'713.8
2017-Nov-16 09:00N 38°35' E 015°35'714.0
2017-Nov-16 08:30N 38°42' E 015°32'714.0
2017-Nov-16 08:00N 38°49' E 015°30'34613.1
2017-Nov-15 05:33N 43°05' E 010°22'212.6
2017-Nov-15 05:23N 43°06' E 010°21'512.5
2017-Nov-15 05:00N 43°11' E 010°18'612.8
2017-Nov-15 04:30N 43°16' E 010°14'612.6
2017-Nov-15 04:00N 43°22' E 010°11'712.8
2017-Nov-15 03:28N 43°28' E 010°07'612.7
2017-Nov-15 03:00N 43°34' E 010°04'511.0
2017-Nov-15 02:30N 43°39' E 010°04'510.2
2017-Nov-15 02:00N 43°43' E 009°59'612.9
2017-Nov-15 01:30N 43°45' E 009°51'612.7
2017-Nov-15 01:00N 43°46' E 009°42'612.2
2017-Nov-15 00:30N 43°48' E 009°34'612.3
2017-Nov-15 00:00N 43°49' E 009°26'612.4
2017-Nov-14 23:30N 43°51' E 009°17'612.3
2017-Nov-14 23:00N 43°52' E 009°09'612.1
2017-Nov-14 22:30N 43°54' E 009°01'612.0
2017-Nov-14 22:00N 43°56' E 008°53'612.0
2017-Nov-14 21:30N 43°58' E 008°45'612.0
2017-Nov-14 21:00N 43°59' E 008°37'612.0
2017-Nov-14 20:29N 44°01' E 008°28'611.5
2017-Nov-14 20:00N 43°58' E 008°23'5410.4
2017-Nov-14 14:47N 43°35' E 007°15'511.9
2017-Nov-14 14:19N 43°32' E 007°09'412.2
2017-Nov-14 14:00N 43°29' E 007°05'612.0
2017-Nov-14 13:30N 43°25' E 006°59'  
Track history (hours):
 
Tides and Currents Weather Stations Pressure Air Temp Water Temp Dewpoint Dewpoint Depression Visibility Wind Speed Wind Dir Waves Ship Positions

Caipirinha

Last reported at 2017-Nov-16 13:27 UTC. Time now 2017-Dec-11 22:53 UTC.
Position N 37°44' E 015°54'.
Warning: this ship's position is 25 days out of date.

Length 60 m; draft 3.5 m.

Type: Pleasure craft. MMSI: 319011100.

Date/timePositionNaut miles runAvg speedWind from/ knotsBaromVisibWave heightAir tempDewpointWater temp
2017-Nov-16 13:27N 37°44' E 015°54'1314.0
2017-Nov-16 12:30N 37°48' E 015°38'714.3
2017-Nov-16 12:00N 37°55' E 015°35'714.1
2017-Nov-16 11:30N 38°02' E 015°34'714.3
2017-Nov-16 11:00N 38°09' E 015°35'714.2
2017-Nov-16 10:29N 38°15' E 015°39'613.0
2017-Nov-16 10:00N 38°22' E 015°39'713.9
2017-Nov-16 09:30N 38°29' E 015°37'713.8
2017-Nov-16 09:00N 38°35' E 015°35'714.0
2017-Nov-16 08:30N 38°42' E 015°32'714.0
2017-Nov-16 08:00N 38°49' E 015°30'34613.1
2017-Nov-15 05:33N 43°05' E 010°22'212.6
2017-Nov-15 05:23N 43°06' E 010°21'512.5
2017-Nov-15 05:00N 43°11' E 010°18'612.8
2017-Nov-15 04:30N 43°16' E 010°14'612.6
2017-Nov-15 04:00N 43°22' E 010°11'712.8
2017-Nov-15 03:28N 43°28' E 010°07'612.7
2017-Nov-15 03:00N 43°34' E 010°04'511.0
2017-Nov-15 02:30N 43°39' E 010°04'510.2
2017-Nov-15 02:00N 43°43' E 009°59'612.9
2017-Nov-15 01:30N 43°45' E 009°51'612.7
2017-Nov-15 01:00N 43°46' E 009°42'612.2
2017-Nov-15 00:30N 43°48' E 009°34'612.3
2017-Nov-15 00:00N 43°49' E 009°26'612.4
2017-Nov-14 23:30N 43°51' E 009°17'612.3
2017-Nov-14 23:00N 43°52' E 009°09'612.1
2017-Nov-14 22:30N 43°54' E 009°01'612.0
2017-Nov-14 22:00N 43°56' E 008°53'612.0
2017-Nov-14 21:30N 43°58' E 008°45'612.0
2017-Nov-14 21:00N 43°59' E 008°37'612.0
2017-Nov-14 20:29N 44°01' E 008°28'611.5
2017-Nov-14 20:00N 43°58' E 008°23'5410.4
2017-Nov-14 14:47N 43°35' E 007°15'511.9
2017-Nov-14 14:19N 43°32' E 007°09'412.2
2017-Nov-14 14:00N 43°29' E 007°05'612.0
2017-Nov-14 13:30N 43°25' E 006°59'  

Dump ship's entire track history